createdAt,value
2019-04-27T00:02:40.130Z,73.90
2019-04-27T00:05:38.873Z,74.00
2019-04-27T00:08:38.846Z,74.10
2019-04-27T00:11:33.213Z,74.30
2019-04-27T00:14:18.295Z,74.50
2019-04-27T00:17:42.478Z,75.00
2019-04-27T00:20:25.393Z,74.40
2019-04-27T00:23:13.234Z,74.40
2019-04-27T00:25:58.929Z,74.40
2019-04-27T00:28:43.904Z,74.60
2019-04-27T00:31:28.766Z,74.70
2019-04-27T00:34:15.117Z,74.60
2019-04-27T00:37:07.684Z,74.40
2019-04-27T00:39:57.099Z,74.30
2019-04-27T00:42:43.978Z,74.20
2019-04-27T00:45:28.429Z,74.20
2019-04-27T00:48:13.374Z,74.10
2019-04-27T00:50:58.650Z,74.00
2019-04-27T00:53:43.784Z,73.90
2019-04-27T00:56:36.488Z,73.90
2019-04-27T00:59:25.897Z,73.70
2019-04-27T01:02:13.435Z,73.70
2019-04-27T01:04:58.268Z,73.60
2019-04-27T01:07:43.444Z,73.50
2019-04-27T01:10:28.823Z,73.50
2019-04-27T01:13:13.815Z,73.40
2019-04-27T01:15:58.682Z,73.30
2019-04-27T01:18:43.993Z,73.30
2019-04-27T01:21:29.564Z,73.20
2019-04-27T01:24:14.438Z,73.30
2019-04-27T01:27:08.696Z,73.20
2019-04-27T01:29:55.311Z,73.30
2019-04-27T01:32:39.825Z,73.30
2019-04-27T01:35:24.779Z,73.30
2019-04-27T01:38:09.723Z,73.40
2019-04-27T01:40:54.609Z,73.20
2019-04-27T01:43:39.241Z,73.40
2019-04-27T01:46:24.016Z,73.50
2019-04-27T01:49:09.329Z,73.50
2019-04-27T01:51:54.219Z,73.40
2019-04-27T01:54:41.128Z,73.30
2019-04-27T01:57:26.076Z,73.50
2019-04-27T02:00:29.484Z,73.60
2019-04-27T02:03:16.477Z,73.50
2019-04-27T02:06:01.065Z,73.50
2019-04-27T02:08:45.575Z,73.40
2019-04-27T02:11:30.127Z,73.50
2019-04-27T02:14:14.749Z,73.50
2019-04-27T02:16:59.589Z,73.60
2019-04-27T02:19:44.267Z,73.60
2019-04-27T02:22:29.685Z,73.50
2019-04-27T02:25:14.310Z,73.50
2019-04-27T02:28:00.954Z,73.40
2019-04-27T02:30:47.517Z,73.30
2019-04-27T02:33:40.513Z,73.40
2019-04-27T02:36:24.980Z,73.50
2019-04-27T02:39:09.747Z,73.40
2019-04-27T02:41:54.293Z,73.40
2019-04-27T02:44:40.928Z,73.50
2019-04-27T02:47:25.650Z,73.40
2019-04-27T02:50:10.818Z,73.40
2019-04-27T02:52:55.246Z,73.40
2019-04-27T02:55:39.965Z,73.30
2019-04-27T02:58:24.395Z,73.40
2019-04-27T03:01:11.977Z,73.50
2019-04-27T03:03:56.719Z,73.70
2019-04-27T03:06:41.250Z,73.70
2019-04-27T03:09:25.928Z,73.80
2019-04-27T03:12:10.521Z,73.90
2019-04-27T03:15:02.679Z,73.80
2019-04-27T03:17:49.517Z,73.70
2019-04-27T03:20:50.870Z,73.70
2019-04-27T03:23:35.275Z,74.30
2019-04-27T03:26:21.884Z,73.70
2019-04-27T03:29:06.598Z,73.60
2019-04-27T03:31:53.880Z,73.40
2019-04-27T03:34:41.512Z,73.40
2019-04-27T03:37:24.267Z,73.30
2019-04-27T03:40:10.320Z,73.30
2019-04-27T03:42:59.376Z,73.20
2019-04-27T03:45:43.736Z,73.30
2019-04-27T03:48:29.438Z,74.40
2019-04-27T03:51:16.079Z,74.50
2019-04-27T03:54:02.635Z,74.60
2019-04-27T03:56:50.805Z,74.60
2019-04-27T03:59:53.806Z,74.80
2019-04-27T04:02:40.443Z,74.70
2019-04-27T04:05:25.049Z,74.70
2019-04-27T04:08:10.724Z,74.70
2019-04-27T04:11:00.309Z,74.80
2019-04-27T04:13:49.610Z,74.90
2019-04-27T04:16:39.545Z,74.70
2019-04-27T04:19:24.300Z,75.00
2019-04-27T04:22:11.381Z,75.10
2019-04-27T04:24:55.932Z,75.10
2019-04-27T04:27:42.784Z,75.10
2019-04-27T04:30:30.022Z,75.10
2019-04-27T04:33:13.789Z,75.10
2019-04-27T04:35:59.765Z,75.30
2019-04-27T04:38:44.694Z,75.40
2019-04-27T04:41:36.883Z,75.10
2019-04-27T04:44:30.273Z,73.90
2019-04-27T04:47:19.366Z,73.90
2019-04-27T04:50:11.494Z,73.90
2019-04-27T04:52:51.481Z,73.90
2019-04-27T04:55:36.053Z,73.80
2019-04-27T04:58:21.128Z,73.60
2019-04-27T05:01:05.787Z,73.50
2019-04-27T05:03:50.349Z,73.40
2019-04-27T05:06:35.051Z,73.40
2019-04-27T05:09:19.935Z,73.40
2019-04-27T05:12:04.520Z,73.20
2019-04-27T05:14:49.063Z,73.10
2019-04-27T05:17:33.598Z,73.20
2019-04-27T05:20:26.306Z,73.10
2019-04-27T05:23:09.716Z,73.00
2019-04-27T05:25:54.260Z,73.10
2019-04-27T05:28:40.767Z,73.00
2019-04-27T05:31:25.505Z,72.80
2019-04-27T05:34:10.433Z,72.90
2019-04-27T05:36:54.999Z,73.10
2019-04-27T05:39:39.709Z,73.10
2019-04-27T05:42:24.368Z,73.10
2019-04-27T05:45:29.119Z,72.90
2019-04-27T05:48:16.172Z,72.80
2019-04-27T05:51:02.010Z,72.60
2019-04-27T05:53:46.899Z,72.60
2019-04-27T05:56:31.554Z,72.60
2019-04-27T05:59:16.173Z,72.50
2019-04-27T06:02:00.879Z,72.80
2019-04-27T06:04:45.846Z,72.10
2019-04-27T06:07:30.748Z,71.70
2019-04-27T06:10:15.549Z,71.40
2019-04-27T06:13:00.032Z,71.20
2019-04-27T06:15:44.800Z,70.90
2019-04-27T06:18:29.523Z,71.00
2019-04-27T06:21:14.221Z,70.90
2019-04-27T06:23:59.057Z,70.60
2019-04-27T06:26:43.482Z,70.70
2019-04-27T06:29:29.242Z,71.00
2019-04-27T06:32:14.037Z,70.60
2019-04-27T06:34:59.155Z,70.70
2019-04-27T06:37:43.892Z,70.90
2019-04-27T06:40:29.044Z,70.90
2019-04-27T06:43:13.682Z,70.90
2019-04-27T06:45:58.709Z,70.70
2019-04-27T06:48:43.275Z,70.80
2019-04-27T06:51:28.694Z,70.60
2019-04-27T06:54:13.469Z,70.50
2019-04-27T06:56:59.272Z,70.50
2019-04-27T06:59:44.422Z,70.50
2019-04-27T07:02:29.311Z,70.00
2019-04-27T07:05:14.158Z,70.40
2019-04-27T07:07:59.216Z,70.80
2019-04-27T07:10:43.881Z,70.80
2019-04-27T07:13:29.203Z,71.10
2019-04-27T07:16:14.467Z,71.60
2019-04-27T07:18:59.456Z,72.00
2019-04-27T07:21:44.289Z,72.30
2019-04-27T07:24:29.320Z,72.50
2019-04-27T07:27:14.553Z,72.00
2019-04-27T07:30:01.605Z,72.70
2019-04-27T07:32:46.243Z,73.20
2019-04-27T07:35:31.377Z,73.00
2019-04-27T07:38:16.104Z,73.50
2019-04-27T07:41:00.939Z,73.70
2019-04-27T07:43:49.345Z,73.90
2019-04-27T07:46:34.151Z,73.90
2019-04-27T07:49:19.242Z,73.90
2019-04-27T07:52:04.094Z,74.30
2019-04-27T07:54:49.319Z,74.30
2019-04-27T07:57:34.440Z,74.60
2019-04-27T08:00:19.713Z,74.70
2019-04-27T08:03:04.395Z,74.80
2019-04-27T08:05:49.341Z,75.40
2019-04-27T08:08:34.118Z,75.30
2019-04-27T08:11:19.321Z,75.40
2019-04-27T08:14:04.683Z,74.70
2019-04-27T08:16:49.521Z,75.40
2019-04-27T08:19:34.470Z,75.80
2019-04-27T08:22:19.686Z,75.50
2019-04-27T08:25:04.743Z,75.70
2019-04-27T08:27:54.130Z,76.00
2019-04-27T08:30:43.586Z,76.40
2019-04-27T08:33:29.002Z,76.70
2019-04-27T08:36:14.343Z,76.40
2019-04-27T08:38:59.064Z,76.20
2019-04-27T08:41:44.184Z,76.30
2019-04-27T08:44:29.223Z,76.40
2019-04-27T08:47:15.910Z,76.40
2019-04-27T08:50:00.934Z,76.20
2019-04-27T08:52:45.750Z,76.20
2019-04-27T08:55:30.608Z,76.60
2019-04-27T08:58:15.513Z,76.40
2019-04-27T09:01:00.369Z,76.30
2019-04-27T09:03:45.117Z,76.40
2019-04-27T09:06:31.216Z,76.70
2019-04-27T09:09:36.503Z,76.90
2019-04-27T09:12:41.476Z,77.50
2019-04-27T09:15:40.282Z,77.20
2019-04-27T09:18:28.991Z,77.00
2019-04-27T09:21:14.204Z,77.30
2019-04-27T09:23:59.349Z,77.60
2019-04-27T09:26:44.463Z,77.70
2019-04-27T09:29:29.816Z,77.90
2019-04-27T09:32:14.612Z,77.50
2019-04-27T09:34:59.406Z,77.30
2019-04-27T09:37:45.794Z,77.50
2019-04-27T09:40:31.033Z,77.40
2019-04-27T09:43:15.799Z,77.60
2019-04-27T09:46:00.777Z,78.30
2019-04-27T09:48:46.610Z,77.90
2019-04-27T09:51:31.822Z,78.00
2019-04-27T09:54:16.372Z,77.80
2019-04-27T09:57:01.247Z,77.90
2019-04-27T09:59:46.330Z,78.00
2019-04-27T10:02:18.277Z,78.50
2019-04-27T10:04:46.072Z,78.50
2019-04-27T10:07:12.467Z,78.30
2019-04-27T10:09:38.733Z,78.20
2019-04-27T10:12:07.311Z,78.00
2019-04-27T10:14:33.687Z,78.40
2019-04-27T10:16:59.853Z,78.00
2019-04-27T10:19:33.224Z,78.40
2019-04-27T10:21:59.847Z,78.60
2019-04-27T10:24:44.516Z,78.20
2019-04-27T10:27:10.771Z,78.60
2019-04-27T10:29:36.980Z,78.50
2019-04-27T10:32:03.180Z,78.90
2019-04-27T10:34:29.380Z,79.30
2019-04-27T10:36:55.954Z,79.50
2019-04-27T10:39:22.284Z,78.60
2019-04-27T10:42:07.983Z,78.40
2019-04-27T10:44:52.689Z,78.50
2019-04-27T10:47:37.232Z,78.20
2019-04-27T10:50:22.090Z,78.00
2019-04-27T10:53:06.984Z,78.10
2019-04-27T10:55:33.422Z,78.20
2019-04-27T10:57:59.728Z,78.40
2019-04-27T11:00:28.017Z,78.50
2019-04-27T11:02:54.345Z,78.70
2019-04-27T11:05:22.414Z,79.10
2019-04-27T11:07:48.917Z,78.90
2019-04-27T11:10:16.286Z,78.50
2019-04-27T11:12:42.611Z,77.80
2019-04-27T11:15:09.254Z,78.10
2019-04-27T11:17:37.079Z,77.50
2019-04-27T11:20:06.394Z,77.60
2019-04-27T11:22:32.561Z,78.00
2019-04-27T11:24:58.833Z,78.00
2019-04-27T11:27:25.171Z,77.90
2019-04-27T11:29:51.414Z,78.10
2019-04-27T11:32:17.632Z,77.90
2019-04-27T11:35:05.818Z,77.50
2019-04-27T11:37:52.233Z,76.00
2019-04-27T11:40:38.392Z,75.30
2019-04-27T11:43:23.107Z,74.10
2019-04-27T11:46:07.561Z,74.80
2019-04-27T11:48:52.278Z,74.00
2019-04-27T11:51:36.912Z,74.80
2019-04-27T11:54:21.481Z,75.00
2019-04-27T11:57:05.968Z,74.00
2019-04-27T11:59:50.725Z,72.80
2019-04-27T12:02:35.789Z,72.60
2019-04-27T12:05:20.690Z,72.80
2019-04-27T12:08:06.251Z,73.10
2019-04-27T12:10:51.104Z,72.90
2019-04-27T12:13:35.954Z,73.00
2019-04-27T12:16:20.349Z,73.30
2019-04-27T12:19:06.519Z,73.60
2019-04-27T12:21:51.068Z,72.90
2019-04-27T12:24:35.654Z,72.70
2019-04-27T12:27:22.038Z,73.20
2019-04-27T12:30:08.697Z,72.80
2019-04-27T12:32:53.413Z,71.90
2019-04-27T12:35:38.063Z,72.20
2019-04-27T12:38:22.682Z,72.40
2019-04-27T12:41:07.185Z,72.70
2019-04-27T12:43:51.932Z,72.50
2019-04-27T12:46:36.397Z,71.80
2019-04-27T12:49:21.008Z,71.10
2019-04-27T12:52:05.914Z,70.70
2019-04-27T12:55:10.511Z,70.40
2019-04-27T12:58:06.303Z,70.70
2019-04-27T13:00:53.098Z,71.00
2019-04-27T13:03:37.753Z,71.70
2019-04-27T13:06:22.334Z,71.60
2019-04-27T13:09:07.241Z,71.00
2019-04-27T13:11:51.672Z,70.60
2019-04-27T13:14:36.584Z,70.90
2019-04-27T13:17:21.270Z,71.00
2019-04-27T13:20:07.149Z,70.70
2019-04-27T13:22:52.033Z,71.50
2019-04-27T13:25:38.240Z,71.70
2019-04-27T13:28:22.598Z,71.30
2019-04-27T13:31:07.324Z,70.70
2019-04-27T13:33:51.828Z,70.80
2019-04-27T13:36:36.863Z,71.00
2019-04-27T13:39:21.827Z,70.00
2019-04-27T13:42:06.611Z,73.40
2019-04-27T13:44:51.326Z,71.50
2019-04-27T13:47:43.592Z,70.60
2019-04-27T13:50:29.939Z,68.90
2019-04-27T13:53:16.641Z,60.40
2019-04-27T13:56:03.210Z,58.80
2019-04-27T13:58:47.895Z,57.10
2019-04-27T14:01:32.640Z,56.60
2019-04-27T14:04:17.528Z,58.20
2019-04-27T14:07:02.459Z,59.90
2019-04-27T14:09:48.588Z,57.30
2019-04-27T14:12:33.601Z,53.50
2019-04-27T14:15:18.691Z,53.90
2019-04-27T14:18:03.163Z,54.80
2019-04-27T14:20:48.677Z,52.70
2019-04-27T14:23:33.440Z,52.40
2019-04-27T14:26:18.458Z,51.20
2019-04-27T14:29:03.208Z,50.70
2019-04-27T14:31:47.894Z,48.50
2019-04-27T14:34:34.581Z,48.50
2019-04-27T14:37:19.007Z,48.80
2019-04-27T14:40:08.325Z,49.10
2019-04-27T14:42:53.903Z,50.50
2019-04-27T14:45:39.728Z,49.90
2019-04-27T14:48:24.429Z,50.30
2019-04-27T14:51:09.086Z,50.60
2019-04-27T14:53:53.606Z,50.50
2019-04-27T14:56:38.806Z,51.40
2019-04-27T14:59:23.426Z,51.40
2019-04-27T15:02:08.732Z,52.10
2019-04-27T15:04:53.553Z,52.10
2019-04-27T15:07:38.074Z,52.70
2019-04-27T15:10:27.049Z,52.70
2019-04-27T15:13:09.048Z,53.10
2019-04-27T15:15:53.684Z,53.30
2019-04-27T15:18:43.611Z,54.10
2019-04-27T15:21:26.566Z,56.00
2019-04-27T15:24:13.611Z,58.20
2019-04-27T15:27:00.709Z,59.70
2019-04-27T15:29:44.035Z,60.40
2019-04-27T15:32:33.530Z,61.10
2019-04-27T15:35:21.852Z,62.60
2019-04-27T15:38:12.795Z,63.00
2019-04-27T15:41:02.745Z,64.30
2019-04-27T15:43:48.649Z,65.30
2019-04-27T15:46:33.798Z,66.50
2019-04-27T15:49:19.481Z,66.40
2019-04-27T15:52:04.677Z,67.10
2019-04-27T15:54:49.299Z,67.70
2019-04-27T15:57:34.029Z,68.30
2019-04-27T16:00:21.020Z,68.20
2019-04-27T16:03:05.785Z,68.10
2019-04-27T16:05:50.407Z,67.20
2019-04-27T16:08:38.171Z,67.30
2019-04-27T16:11:21.690Z,67.50
2019-04-27T16:14:06.734Z,67.80
2019-04-27T16:16:52.575Z,68.60
2019-04-27T16:19:40.679Z,69.70
2019-04-27T16:22:26.826Z,69.40
2019-04-27T16:25:10.411Z,69.40
2019-04-27T16:27:54.818Z,70.00
2019-04-27T16:30:40.340Z,69.80
2019-04-27T16:33:24.611Z,70.20
2019-04-27T16:36:09.703Z,70.80
2019-04-27T16:38:59.017Z,71.30
2019-04-27T16:41:43.396Z,70.80
2019-04-27T16:44:28.053Z,71.40
2019-04-27T16:47:16.606Z,71.70
2019-04-27T16:50:00.771Z,71.40
2019-04-27T16:52:50.750Z,71.70
2019-04-27T16:55:34.239Z,71.30
2019-04-27T16:58:20.755Z,71.30
2019-04-27T17:01:14.958Z,70.20
2019-04-27T17:03:59.617Z,69.40
2019-04-27T17:06:45.884Z,70.20
2019-04-27T17:09:30.753Z,70.30
2019-04-27T17:12:15.355Z,70.50
2019-04-27T17:15:05.754Z,70.60
2019-04-27T17:17:53.418Z,70.80
2019-04-27T17:20:38.355Z,70.00
2019-04-27T17:23:26.130Z,70.30
2019-04-27T17:26:21.213Z,69.70
2019-04-27T17:29:02.017Z,70.10
2019-04-27T17:31:50.591Z,70.60
2019-04-27T17:34:34.387Z,71.00
2019-04-27T17:37:19.033Z,70.70
2019-04-27T17:40:03.968Z,70.80
2019-04-27T17:42:48.356Z,70.90
2019-04-27T17:45:36.249Z,71.20
2019-04-27T17:48:19.561Z,70.80
2019-04-27T17:51:04.604Z,70.70
2019-04-27T17:53:50.020Z,70.80
2019-04-27T17:56:36.367Z,70.70
2019-04-27T17:59:21.716Z,70.80
2019-04-27T18:02:06.319Z,71.20
2019-04-27T18:04:50.842Z,71.30
2019-04-27T18:07:40.374Z,71.70
2019-04-27T18:10:24.238Z,71.20
2019-04-27T18:13:08.786Z,71.60
2019-04-27T18:15:54.327Z,72.00
2019-04-27T18:18:40.749Z,72.30
2019-04-27T18:21:28.276Z,72.80
2019-04-27T18:24:18.631Z,72.60
2019-04-27T18:27:18.341Z,72.70
2019-04-27T18:30:08.432Z,71.90
2019-04-27T18:32:59.365Z,70.40
2019-04-27T18:35:40.358Z,69.70
2019-04-27T18:38:24.950Z,69.50
2019-04-27T18:41:11.769Z,69.00
2019-04-27T18:43:59.864Z,68.70
2019-04-27T18:46:42.665Z,68.60
2019-04-27T18:49:32.033Z,68.40
2019-04-27T18:52:40.361Z,68.50
2019-04-27T18:55:22.611Z,68.50
2019-04-27T18:58:08.987Z,68.80
2019-04-27T19:00:53.847Z,68.80
2019-04-27T19:03:39.154Z,68.40
2019-04-27T19:06:23.650Z,68.60
2019-04-27T19:09:08.441Z,68.30
2019-04-27T19:11:56.612Z,68.10
2019-04-27T19:14:40.058Z,69.20
2019-04-27T19:17:24.598Z,68.60
2019-04-27T19:20:10.512Z,68.80
2019-04-27T19:22:55.303Z,69.20
2019-04-27T19:25:41.819Z,69.40
2019-04-27T19:28:40.222Z,69.80
2019-04-27T19:31:32.506Z,69.80
2019-04-27T19:34:18.126Z,70.10
2019-04-27T19:37:02.900Z,70.60
2019-04-27T19:39:47.832Z,71.00
2019-04-27T19:42:33.963Z,71.40
2019-04-27T19:45:19.443Z,71.70
2019-04-27T19:48:04.795Z,71.70
2019-04-27T19:50:50.478Z,71.70
2019-04-27T19:53:34.986Z,71.70
2019-04-27T19:56:21.374Z,71.80
2019-04-27T19:59:08.949Z,71.70
2019-04-27T20:01:55.783Z,71.70
2019-04-27T20:04:41.469Z,71.50
2019-04-27T20:07:25.777Z,71.20
2019-04-27T20:10:10.644Z,71.30
2019-04-27T20:12:55.045Z,71.30
2019-04-27T20:15:40.676Z,71.60
2019-04-27T20:18:26.376Z,71.80
2019-04-27T20:21:12.313Z,71.70
2019-04-27T20:23:57.114Z,71.70
2019-04-27T20:26:41.631Z,71.80
2019-04-27T20:29:26.354Z,72.00
2019-04-27T20:32:11.430Z,72.10
2019-04-27T20:34:56.145Z,72.00
2019-04-27T20:37:41.567Z,71.90
2019-04-27T20:40:26.234Z,72.10
2019-04-27T20:43:10.814Z,72.10
2019-04-27T20:45:55.453Z,72.10
2019-04-27T20:48:41.369Z,73.40
2019-04-27T20:51:50.086Z,73.70
2019-04-27T20:54:32.587Z,73.60
2019-04-27T20:57:17.522Z,73.60
2019-04-27T21:00:04.225Z,73.70
2019-04-27T21:02:51.882Z,73.70
2019-04-27T21:05:54.823Z,73.60
2019-04-27T21:08:41.350Z,73.70
2019-04-27T21:11:27.830Z,73.70
2019-04-27T21:14:12.773Z,73.70
2019-04-27T21:16:57.268Z,73.70
2019-04-27T21:19:41.955Z,73.80
2019-04-27T21:22:26.482Z,73.90
2019-04-27T21:25:11.857Z,74.00
2019-04-27T21:27:56.627Z,74.00
2019-04-27T21:30:41.132Z,74.10
2019-04-27T21:33:25.739Z,74.20
2019-04-27T21:36:11.753Z,74.30
2019-04-27T21:38:56.434Z,74.50
2019-04-27T21:41:41.365Z,74.50
2019-04-27T21:44:26.196Z,74.60
2019-04-27T21:47:11.159Z,74.70
2019-04-27T21:49:55.846Z,74.90
2019-04-27T21:53:00.626Z,74.80
2019-04-27T21:55:50.690Z,74.90
2019-04-27T21:58:35.594Z,75.00
2019-04-27T22:01:24.358Z,75.10
2019-04-27T22:04:09.013Z,75.10
2019-04-27T22:06:53.880Z,75.30
2019-04-27T22:09:38.650Z,75.20
2019-04-27T22:12:23.462Z,75.40
2019-04-27T22:15:08.763Z,75.50
2019-04-27T22:17:53.232Z,75.60
2019-04-27T22:20:38.331Z,75.60
2019-04-27T22:23:27.910Z,75.70
2019-04-27T22:26:12.721Z,75.60
2019-04-27T22:28:58.014Z,75.70
2019-04-27T22:31:42.591Z,75.60
2019-04-27T22:34:27.703Z,75.70
2019-04-27T22:37:12.571Z,75.60
2019-04-27T22:40:05.233Z,75.70
2019-04-27T22:43:08.515Z,75.80
2019-04-27T22:45:53.830Z,75.90
2019-04-27T22:48:38.582Z,75.90
2019-04-27T22:51:23.383Z,76.10
2019-04-27T22:54:08.284Z,76.10
2019-04-27T22:56:55.159Z,76.10
2019-04-27T22:59:41.585Z,76.10
2019-04-27T23:02:29.405Z,76.10
2019-04-27T23:05:13.862Z,76.10
2019-04-27T23:07:58.314Z,76.20
2019-04-27T23:10:42.816Z,76.30
2019-04-27T23:13:27.702Z,76.30
2019-04-27T23:16:14.036Z,76.30
2019-04-27T23:18:58.334Z,76.50
2019-04-27T23:21:42.862Z,76.50
2019-04-27T23:24:27.512Z,76.40
2019-04-27T23:27:13.875Z,76.50
2019-04-27T23:29:58.656Z,76.30
2019-04-27T23:32:47.838Z,76.20
2019-04-27T23:35:32.950Z,76.30
2019-04-27T23:38:18.069Z,76.00
2019-04-27T23:41:02.678Z,76.00
2019-04-27T23:43:47.280Z,75.80
2019-04-27T23:46:31.943Z,75.80
2019-04-27T23:49:16.352Z,75.80
2019-04-27T23:52:05.857Z,75.80
2019-04-27T23:54:51.158Z,75.90
2019-04-27T23:57:35.816Z,75.80
